Time;durP1;ratioP1;P1;durP2;ratioP2;P2;SDS_P1;SDS_P2;PMS_P1;PMS_P2;Temp;Humidity;BMP_temperature;BMP_pressure;BME280_temperature;BME280_humidity;BME280_pressure;Samples;Min_cycle;Max_cycle;Signal;HPM_P1;HPM_P2
2023/01/01 00:00:57;;;;;;;;;;;13.40;99.90;;;;;;5103329;28;19970;-88
2023/01/01 00:03:22;;;;;;;;;;;13.30;99.90;;;;;;5121328;28;19935;-87
2023/01/01 00:05:48;;;;;;;;;;;13.40;99.90;;;;;;5105870;28;19946;-88
2023/01/01 00:08:14;;;;;;;;;;;13.40;99.90;;;;;;5105816;28;19924;-89
2023/01/01 00:10:39;;;;;;;;;;;13.40;99.90;;;;;;5106717;28;19923;-88
2023/01/01 00:13:05;;;;;;;;;;;13.30;99.90;;;;;;5088525;28;19934;-88
2023/01/01 00:15:32;;;;;;;;;;;13.30;99.90;;;;;;5123654;28;19934;-87
2023/01/01 00:17:57;;;;;;;;;;;13.30;99.90;;;;;;5104096;28;19982;-88
2023/01/01 00:20:23;;;;;;;;;;;13.20;99.90;;;;;;5106816;28;19924;-88
2023/01/01 00:22:49;;;;;;;;;;;13.20;99.90;;;;;;5122946;28;19924;-88
2023/01/01 00:25:16;;;;;;;;;;;13.10;99.90;;;;;;5123562;28;19934;-88
2023/01/01 00:27:42;;;;;;;;;;;13.10;99.90;;;;;;5104999;28;19934;-88
2023/01/01 00:30:08;;;;;;;;;;;13.10;99.90;;;;;;5088827;28;19924;-87
2023/01/01 00:32:34;;;;;;;;;;;13.10;99.90;;;;;;5109174;28;19924;-88
2023/01/01 00:34:59;;;;;;;;;;;13.10;99.90;;;;;;5088554;28;19924;-87
2023/01/01 00:37:26;;;;;;;;;;;13.00;99.90;;;;;;5105955;28;19963;-88
2023/01/01 00:39:51;;;;;;;;;;;13.00;99.90;;;;;;5122824;28;20005;-87
2023/01/01 00:42:17;;;;;;;;;;;13.00;99.90;;;;;;5102426;28;19943;-88
2023/01/01 00:44:43;;;;;;;;;;;12.90;99.90;;;;;;5089272;28;20267;-88
2023/01/01 00:47:08;;;;;;;;;;;12.90;99.90;;;;;;5105070;28;20369;-88
2023/01/01 00:49:34;;;;;;;;;;;12.80;99.90;;;;;;5105847;28;19930;-88
2023/01/01 00:51:59;;;;;;;;;;;12.80;99.90;;;;;;5099301;28;19920;-89
2023/01/01 00:54:25;;;;;;;;;;;12.80;99.90;;;;;;5118849;28;19943;-88
2023/01/01 00:56:50;;;;;;;;;;;12.80;99.90;;;;;;5106312;28;19947;-87
2023/01/01 00:59:16;;;;;;;;;;;12.80;99.90;;;;;;5105119;28;19959;-88
2023/01/01 01:01:42;;;;;;;;;;;12.80;99.90;;;;;;5105365;28;19924;-88
2023/01/01 01:04:08;;;;;;;;;;;12.80;99.90;;;;;;5083767;28;19970;-88
2023/01/01 01:06:34;;;;;;;;;;;12.80;99.90;;;;;;5082467;28;19986;-89
2023/01/01 01:08:59;;;;;;;;;;;12.80;99.90;;;;;;5084369;28;19924;-88
2023/01/01 01:11:25;;;;;;;;;;;12.90;99.90;;;;;;5098705;28;19947;-88
2023/01/01 01:13:55;;;;;;;;;;;12.90;99.90;;;;;;5111581;28;19925;-88
2023/01/01 01:16:22;;;;;;;;;;;12.90;99.90;;;;;;5082074;28;19925;-88
2023/01/01 01:18:52;;;;;;;;;;;12.90;99.90;;;;;;5083739;28;19924;-88
2023/01/01 01:21:18;;;;;;;;;;;12.80;99.90;;;;;;5098476;28;20375;-89
2023/01/01 01:23:44;;;;;;;;;;;12.80;99.90;;;;;;5099471;28;19925;-88
2023/01/01 01:26:11;;;;;;;;;;;12.80;99.90;;;;;;5081743;28;19924;-88
2023/01/01 01:28:37;;;;;;;;;;;12.80;99.90;;;;;;5101453;28;20016;-88
2023/01/01 01:31:03;;;;;;;;;;;12.80;99.90;;;;;;5067437;28;20252;-89
2023/01/01 01:33:29;;;;;;;;;;;12.80;99.90;;;;;;5100463;28;19952;-88
2023/01/01 01:35:54;;;;;;;;;;;12.80;99.90;;;;;;5101499;28;19931;-89
2023/01/01 01:38:20;;;;;;;;;;;12.80;99.90;;;;;;5084128;28;19981;-88
2023/01/01 01:40:45;;;;;;;;;;;12.80;99.90;;;;;;5084486;28;19924;-89
2023/01/01 01:43:19;;;;;;;;;;;12.80;99.90;;;;;;5081374;28;19999;-88
2023/01/01 01:45:45;;;;;;;;;;;12.80;99.90;;;;;;5095678;28;19924;-89
2023/01/01 01:48:10;;;;;;;;;;;12.80;99.90;;;;;;5082761;28;19992;-89
2023/01/01 01:50:39;;;;;;;;;;;12.70;99.90;;;;;;5084244;28;19950;-88
2023/01/01 01:53:17;;;;;;;;;;;12.70;99.90;;;;;;5083850;28;20003;-89
2023/01/01 01:55:46;;;;;;;;;;;12.60;99.90;;;;;;5101061;28;19946;-87
2023/01/01 01:58:12;;;;;;;;;;;12.60;99.90;;;;;;5101001;28;19924;-88
2023/01/01 02:00:38;;;;;;;;;;;12.50;99.90;;;;;;5101380;28;19924;-88
2023/01/01 02:03:15;;;;;;;;;;;12.40;99.90;;;;;;5099457;28;19920;-88
2023/01/01 02:05:41;;;;;;;;;;;12.40;99.90;;;;;;5113734;28;19934;-88
2023/01/01 02:08:08;;;;;;;;;;;12.30;99.90;;;;;;5088972;28;19928;-88
2023/01/01 02:10:34;;;;;;;;;;;12.30;99.90;;;;;;5101647;28;19925;-88
2023/01/01 02:13:00;;;;;;;;;;;12.20;99.90;;;;;;5091964;28;19925;-89
2023/01/01 02:15:28;;;;;;;;;;;12.20;99.90;;;;;;5078422;28;19924;-87
2023/01/01 02:17:57;;;;;;;;;;;12.20;99.90;;;;;;5115703;28;19930;-87
2023/01/01 02:20:35;;;;;;;;;;;12.10;99.90;;;;;;5117914;28;19943;-87
2023/01/01 02:23:19;;;;;;;;;;;12.10;99.90;;;;;;5099952;28;19924;-87
2023/01/01 02:25:54;;;;;;;;;;;12.10;99.90;;;;;;5100349;28;19946;-88
2023/01/01 02:28:23;;;;;;;;;;;12.00;99.90;;;;;;5083074;28;20411;-87
2023/01/01 02:30:49;;;;;;;;;;;12.00;99.90;;;;;;5096958;28;20356;-88
2023/01/01 02:33:18;;;;;;;;;;;12.00;99.90;;;;;;5098970;28;20381;-88
2023/01/01 02:36:02;;;;;;;;;;;12.00;99.90;;;;;;5100032;28;19925;-87
2023/01/01 02:38:30;;;;;;;;;;;12.10;99.90;;;;;;5099692;28;19924;-87
2023/01/01 02:41:10;;;;;;;;;;;12.10;99.90;;;;;;5099406;28;19938;-89
2023/01/01 02:43:36;;;;;;;;;;;12.20;99.90;;;;;;5093920;28;19935;-88
2023/01/01 02:46:06;;;;;;;;;;;12.20;99.90;;;;;;5074389;28;20379;-88
2023/01/01 02:48:38;;;;;;;;;;;12.20;99.90;;;;;;5080789;28;19940;-88
2023/01/01 02:51:10;;;;;;;;;;;12.20;99.90;;;;;;5097099;28;19945;-87
2023/01/01 02:53:37;;;;;;;;;;;12.20;99.90;;;;;;5081598;28;19924;-88
2023/01/01 02:56:06;;;;;;;;;;;12.30;99.90;;;;;;5080471;28;19924;-87
2023/01/01 03:01:28;;;;;;;;;;;12.20;99.90;;;;;;5101938;28;19955;-87
2023/01/01 03:04:09;;;;;;;;;;;12.30;99.90;;;;;;5097749;28;19924;-87
2023/01/01 03:06:48;;;;;;;;;;;12.30;99.90;;;;;;5098408;28;19979;-88
2023/01/01 03:09:23;;;;;;;;;;;12.30;99.90;;;;;;5101276;28;20311;-87
2023/01/01 03:12:01;;;;;;;;;;;12.40;99.90;;;;;;5101392;28;19970;-88
2023/01/01 03:14:30;;;;;;;;;;;12.40;99.90;;;;;;5106070;28;19926;-88
2023/01/01 03:17:16;;;;;;;;;;;12.50;99.90;;;;;;5127920;28;19928;-88
2023/01/01 03:19:42;;;;;;;;;;;12.40;99.90;;;;;;5099197;28;19930;-88
2023/01/01 03:22:09;;;;;;;;;;;12.40;99.90;;;;;;5101970;28;20310;-87
2023/01/01 03:24:37;;;;;;;;;;;12.40;99.90;;;;;;5103213;28;19942;-88
2023/01/01 03:27:07;;;;;;;;;;;12.40;99.90;;;;;;5096126;28;19924;-87
2023/01/01 03:29:34;;;;;;;;;;;12.30;99.90;;;;;;5098552;28;20253;-89
2023/01/01 03:32:02;;;;;;;;;;;12.20;99.90;;;;;;5103992;28;19924;-87
2023/01/01 03:34:33;;;;;;;;;;;12.10;99.90;;;;;;5104741;28;19931;-89
2023/01/01 03:37:01;;;;;;;;;;;11.90;99.90;;;;;;5111944;28;19932;-87
2023/01/01 03:39:30;;;;;;;;;;;11.80;99.90;;;;;;5125518;28;19927;-88
2023/01/01 03:42:19;;;;;;;;;;;11.70;99.90;;;;;;5097943;28;19924;-88
2023/01/01 03:44:46;;;;;;;;;;;11.60;99.90;;;;;;5089822;28;19924;-88
2023/01/01 03:47:12;;;;;;;;;;;11.50;99.90;;;;;;5102440;28;19932;-88
2023/01/01 03:49:37;;;;;;;;;;;11.40;99.90;;;;;;5104005;28;19924;-88
2023/01/01 03:52:35;;;;;;;;;;;11.30;99.90;;;;;;5118925;28;19977;-88
2023/01/01 03:55:24;;;;;;;;;;;11.30;99.90;;;;;;5049705;28;19924;-87
2023/01/01 03:58:01;;;;;;;;;;;11.20;99.90;;;;;;5100942;28;19966;-88
2023/01/01 04:00:29;;;;;;;;;;;11.30;99.90;;;;;;5096799;28;19927;-87
2023/01/01 04:02:58;;;;;;;;;;;11.20;99.90;;;;;;5117557;28;20002;-87
2023/01/01 04:05:23;;;;;;;;;;;11.20;99.90;;;;;;5101840;28;19983;-86
2023/01/01 04:07:50;;;;;;;;;;;11.30;99.90;;;;;;5085020;28;19993;-87
2023/01/01 04:10:16;;;;;;;;;;;11.30;99.90;;;;;;5101996;28;19981;-87
2023/01/01 04:12:45;;;;;;;;;;;11.30;99.90;;;;;;5079513;28;19928;-87
2023/01/01 04:15:11;;;;;;;;;;;11.20;99.90;;;;;;5101662;28;19942;-87
2023/01/01 04:17:36;;;;;;;;;;;11.30;99.90;;;;;;5092957;28;19932;-88
2023/01/01 04:20:02;;;;;;;;;;;11.30;99.90;;;;;;5110569;28;20012;-87
2023/01/01 04:22:28;;;;;;;;;;;11.30;99.90;;;;;;5082044;28;20372;-88
2023/01/01 04:24:54;;;;;;;;;;;11.30;99.90;;;;;;5088972;28;19934;-88
2023/01/01 04:27:19;;;;;;;;;;;11.40;99.90;;;;;;5111259;28;19958;-87
2023/01/01 04:29:45;;;;;;;;;;;11.40;99.90;;;;;;5097884;28;19983;-88
2023/01/01 04:32:10;;;;;;;;;;;11.40;99.90;;;;;;5128160;28;19938;-87
2023/01/01 04:34:36;;;;;;;;;;;11.40;99.90;;;;;;5126024;28;19927;-88
2023/01/01 04:37:02;;;;;;;;;;;11.40;99.90;;;;;;5106158;28;19927;-88
2023/01/01 04:39:27;;;;;;;;;;;11.40;99.90;;;;;;5105100;28;19954;-87
2023/01/01 04:41:53;;;;;;;;;;;11.40;99.90;;;;;;5105831;28;20389;-87
2023/01/01 04:44:19;;;;;;;;;;;11.30;99.90;;;;;;5083898;28;20015;-87
2023/01/01 04:46:44;;;;;;;;;;;11.30;99.90;;;;;;5105785;28;19931;-88
2023/01/01 04:49:10;;;;;;;;;;;11.30;99.90;;;;;;5130716;27;19923;-87
2023/01/01 04:51:35;;;;;;;;;;;11.30;99.90;;;;;;5081367;28;19927;-88
2023/01/01 04:54:01;;;;;;;;;;;11.30;99.90;;;;;;5084973;28;19924;-87
2023/01/01 04:56:27;;;;;;;;;;;11.20;99.90;;;;;;5084446;28;19927;-87
2023/01/01 04:58:52;;;;;;;;;;;11.20;99.90;;;;;;5104911;28;19987;-88
2023/01/01 05:01:19;;;;;;;;;;;11.20;99.90;;;;;;5104660;28;19934;-87
2023/01/01 05:03:46;;;;;;;;;;;11.10;99.90;;;;;;5103256;28;19939;-87
2023/01/01 05:06:12;;;;;;;;;;;11.10;99.90;;;;;;5122733;28;19924;-88
2023/01/01 05:08:38;;;;;;;;;;;11.10;99.90;;;;;;5119073;28;19932;-87
2023/01/01 05:11:05;;;;;;;;;;;11.10;99.90;;;;;;5087768;28;19946;-88
2023/01/01 05:13:32;;;;;;;;;;;11.20;99.90;;;;;;5103313;28;19932;-87
2023/01/01 05:16:00;;;;;;;;;;;11.10;99.90;;;;;;5101542;28;19924;-87
2023/01/01 05:18:26;;;;;;;;;;;11.20;99.90;;;;;;5101812;28;19951;-87
2023/01/01 05:20:52;;;;;;;;;;;11.20;99.90;;;;;;5105281;28;19924;-87
2023/01/01 05:23:17;;;;;;;;;;;11.20;99.90;;;;;;5101473;28;19924;-87
2023/01/01 05:25:43;;;;;;;;;;;11.20;99.90;;;;;;5103210;28;19973;-87
2023/01/01 05:28:08;;;;;;;;;;;11.30;99.90;;;;;;5083795;28;19930;-88
2023/01/01 05:30:37;;;;;;;;;;;11.20;99.90;;;;;;5103716;28;19931;-88
2023/01/01 05:33:03;;;;;;;;;;;11.30;99.90;;;;;;5120771;28;20499;-87
2023/01/01 05:35:28;;;;;;;;;;;11.30;99.90;;;;;;5087348;28;20003;-87
2023/01/01 05:37:54;;;;;;;;;;;11.20;99.90;;;;;;5104667;28;19946;-89
2023/01/01 05:40:21;;;;;;;;;;;11.20;99.90;;;;;;5114060;28;19942;-87
2023/01/01 05:42:47;;;;;;;;;;;11.30;99.90;;;;;;5130641;28;19963;-87
2023/01/01 05:45:12;;;;;;;;;;;11.30;99.90;;;;;;5091343;28;19951;-87
2023/01/01 05:47:38;;;;;;;;;;;11.30;99.90;;;;;;5102058;28;19927;-87
2023/01/01 05:50:04;;;;;;;;;;;11.40;99.90;;;;;;5084392;28;19928;-88
2023/01/01 05:52:30;;;;;;;;;;;11.40;99.90;;;;;;5096438;28;19946;-88
2023/01/01 05:54:57;;;;;;;;;;;11.50;99.90;;;;;;5079516;28;19935;-88
2023/01/01 05:57:22;;;;;;;;;;;11.50;99.90;;;;;;5081305;28;19924;-87
2023/01/01 05:59:48;;;;;;;;;;;11.50;99.90;;;;;;5120756;28;19934;-88
2023/01/01 06:02:14;;;;;;;;;;;11.40;99.90;;;;;;5104688;27;20021;-88
2023/01/01 06:04:39;;;;;;;;;;;11.40;99.90;;;;;;5106315;27;20018;-87
2023/01/01 06:07:05;;;;;;;;;;;11.40;99.90;;;;;;5087128;28;19935;-88
2023/01/01 06:09:31;;;;;;;;;;;11.40;99.90;;;;;;5095871;28;19932;-88
2023/01/01 06:11:56;;;;;;;;;;;11.40;99.90;;;;;;5104389;28;19934;-88
2023/01/01 06:14:22;;;;;;;;;;;11.40;99.90;;;;;;5096847;28;19923;-87
2023/01/01 06:16:47;;;;;;;;;;;11.40;99.90;;;;;;5120469;27;19930;-88
2023/01/01 06:19:13;;;;;;;;;;;11.40;99.90;;;;;;5086265;27;19924;-87
2023/01/01 06:21:39;;;;;;;;;;;11.40;99.90;;;;;;5103331;28;20013;-88
2023/01/01 06:24:04;;;;;;;;;;;11.30;99.90;;;;;;5105091;27;19923;-88
2023/01/01 06:26:31;;;;;;;;;;;11.40;99.90;;;;;;5089753;27;19927;-88
2023/01/01 06:28:57;;;;;;;;;;;11.30;99.90;;;;;;5091300;27;19927;-87
2023/01/01 06:31:23;;;;;;;;;;;11.40;99.90;;;;;;5106115;27;19924;-87
2023/01/01 06:33:49;;;;;;;;;;;11.40;99.90;;;;;;5103663;27;19924;-87
2023/01/01 06:36:16;;;;;;;;;;;11.40;99.90;;;;;;5107069;27;20014;-88
2023/01/01 06:38:43;;;;;;;;;;;11.40;99.90;;;;;;5103990;28;19923;-87
2023/01/01 06:41:13;;;;;;;;;;;11.30;99.90;;;;;;5097149;28;19924;-88
2023/01/01 06:43:39;;;;;;;;;;;10.80;99.90;;;;;;5112500;27;19963;-88
2023/01/01 06:46:18;;;;;;;;;;;11.40;99.90;;;;;;5106924;27;20371;-87
2023/01/01 06:48:44;;;;;;;;;;;11.40;99.90;;;;;;5116910;28;19923;-87
2023/01/01 06:51:14;;;;;;;;;;;11.40;99.90;;;;;;5105820;27;19920;-87
2023/01/01 06:53:40;;;;;;;;;;;11.30;99.90;;;;;;5136784;27;19920;-87
2023/01/01 06:56:06;;;;;;;;;;;11.30;99.90;;;;;;5097862;27;19924;-88
2023/01/01 06:58:32;;;;;;;;;;;11.30;99.90;;;;;;5102595;28;19931;-88
2023/01/01 07:01:04;;;;;;;;;;;11.30;99.90;;;;;;5103656;28;19924;-87
2023/01/01 07:03:30;;;;;;;;;;;11.20;99.90;;;;;;5104262;27;19961;-88
2023/01/01 07:05:56;;;;;;;;;;;11.20;99.90;;;;;;5106508;27;19927;-87
2023/01/01 07:08:21;;;;;;;;;;;11.20;99.90;;;;;;5084222;28;19923;-88
2023/01/01 07:10:47;;;;;;;;;;;11.20;99.90;;;;;;5106391;27;19934;-87
2023/01/01 07:13:13;;;;;;;;;;;11.20;99.90;;;;;;5105184;28;19927;-88
2023/01/01 07:15:39;;;;;;;;;;;11.20;99.90;;;;;;5106455;28;19949;-88
2023/01/01 07:18:04;;;;;;;;;;;11.20;99.90;;;;;;5100105;28;20033;-87
2023/01/01 07:20:30;;;;;;;;;;;11.20;99.90;;;;;;5097194;28;19927;-87
2023/01/01 07:22:55;;;;;;;;;;;11.20;99.90;;;;;;5105745;28;19946;-87
2023/01/01 07:25:21;;;;;;;;;;;11.20;99.90;;;;;;5106320;28;19934;-87
2023/01/01 07:27:47;;;;;;;;;;;11.20;99.90;;;;;;5102642;28;19924;-88
2023/01/01 07:30:12;;;;;;;;;;;11.10;99.90;;;;;;5100098;28;19930;-87
2023/01/01 07:32:38;;;;;;;;;;;11.10;99.90;;;;;;5082187;27;20240;-89
2023/01/01 07:35:04;;;;;;;;;;;11.10;99.90;;;;;;5110536;27;19923;-88
2023/01/01 07:37:29;;;;;;;;;;;11.00;99.90;;;;;;5113950;27;19995;-88
2023/01/01 07:39:55;;;;;;;;;;;11.00;99.90;;;;;;5105227;28;20265;-87
2023/01/01 07:42:20;;;;;;;;;;;11.00;99.90;;;;;;5087024;28;19935;-88
2023/01/01 07:44:46;;;;;;;;;;;11.00;99.90;;;;;;5105959;27;19927;-88
2023/01/01 07:47:20;;;;;;;;;;;11.00;99.90;;;;;;5104704;28;19927;-88
2023/01/01 07:49:46;;;;;;;;;;;11.00;99.90;;;;;;5123428;28;19928;-87
2023/01/01 07:52:12;;;;;;;;;;;10.90;99.90;;;;;;5087988;28;19924;-87
2023/01/01 07:54:37;;;;;;;;;;;10.90;99.90;;;;;;5105595;27;19975;-87
2023/01/01 07:57:03;;;;;;;;;;;10.80;99.90;;;;;;5098712;27;20109;-88
2023/01/01 07:59:28;;;;;;;;;;;10.90;99.90;;;;;;5112632;27;20348;-88
2023/01/01 08:01:54;;;;;;;;;;;10.90;99.90;;;;;;5095586;27;19924;-88
2023/01/01 08:04:20;;;;;;;;;;;10.90;99.90;;;;;;5120308;27;19936;-87
2023/01/01 08:06:45;;;;;;;;;;;10.80;99.90;;;;;;5120360;27;19923;-88
2023/01/01 08:09:11;;;;;;;;;;;10.80;99.90;;;;;;5123107;27;20337;-88
2023/01/01 08:11:36;;;;;;;;;;;10.80;99.90;;;;;;5088129;27;20487;-88
2023/01/01 08:14:02;;;;;;;;;;;10.80;99.90;;;;;;5125899;27;19923;-87
2023/01/01 08:16:27;;;;;;;;;;;10.90;99.90;;;;;;5091654;27;19949;-88
2023/01/01 08:18:53;;;;;;;;;;;10.90;99.90;;;;;;5107935;27;19927;-88
2023/01/01 08:21:19;;;;;;;;;;;10.80;99.90;;;;;;5126288;27;19974;-88
2023/01/01 08:23:44;;;;;;;;;;;10.80;99.90;;;;;;5091382;27;19923;-88
2023/01/01 08:26:14;;;;;;;;;;;10.80;99.90;;;;;;5108728;27;20259;-87
2023/01/01 08:28:39;;;;;;;;;;;10.70;99.90;;;;;;5109110;27;19924;-88
2023/01/01 08:31:05;;;;;;;;;;;10.70;99.90;;;;;;5091298;27;19924;-87
2023/01/01 08:33:31;;;;;;;;;;;10.70;99.90;;;;;;5104644;28;20470;-88
2023/01/01 08:35:56;;;;;;;;;;;10.70;99.90;;;;;;5105029;28;20002;-88
2023/01/01 08:38:22;;;;;;;;;;;10.80;99.90;;;;;;5108186;27;20029;-88
2023/01/01 08:40:47;;;;;;;;;;;10.80;99.90;;;;;;5089554;28;19927;-88
2023/01/01 08:43:13;;;;;;;;;;;10.70;99.90;;;;;;5103466;28;19938;-89
2023/01/01 08:45:39;;;;;;;;;;;10.70;99.90;;;;;;5103667;27;19930;-89
2023/01/01 08:48:04;;;;;;;;;;;10.80;99.90;;;;;;5106907;27;20060;-88
2023/01/01 08:50:30;;;;;;;;;;;10.70;99.90;;;;;;5126292;27;19938;-89
2023/01/01 08:52:59;;;;;;;;;;;10.70;99.90;;;;;;5108922;27;20014;-90
2023/01/01 08:55:24;;;;;;;;;;;10.70;99.90;;;;;;5109635;27;20387;-89
2023/01/01 08:57:50;;;;;;;;;;;10.70;99.90;;;;;;5126413;27;20023;-90
2023/01/01 09:00:16;;;;;;;;;;;10.70;99.90;;;;;;5100375;27;19924;-88
2023/01/01 09:02:41;;;;;;;;;;;10.70;99.90;;;;;;5122868;27;19971;-90
2023/01/01 09:05:08;;;;;;;;;;;10.70;99.90;;;;;;5108422;27;19923;-89
2023/01/01 09:07:33;;;;;;;;;;;10.70;99.90;;;;;;5092257;27;19945;-91
2023/01/01 09:09:59;;;;;;;;;;;10.80;99.90;;;;;;5100739;28;19955;-89
2023/01/01 09:12:25;;;;;;;;;;;10.80;99.90;;;;;;5089022;27;19923;-89
2023/01/01 09:14:51;;;;;;;;;;;10.80;99.90;;;;;;5109385;27;19931;-89
2023/01/01 09:17:16;;;;;;;;;;;10.80;99.90;;;;;;5136131;27;19919;-88
2023/01/01 09:19:42;;;;;;;;;;;10.80;99.90;;;;;;5118158;27;19923;-89
2023/01/01 09:22:09;;;;;;;;;;;10.80;99.90;;;;;;5110874;27;19963;-90
2023/01/01 09:24:34;;;;;;;;;;;10.80;99.90;;;;;;5120818;28;19930;-90
2023/01/01 09:27:00;;;;;;;;;;;10.80;99.90;;;;;;5125226;27;19924;-91
2023/01/01 09:29:26;;;;;;;;;;;10.80;99.90;;;;;;5105224;28;19935;-88
2023/01/01 09:31:51;;;;;;;;;;;10.80;99.90;;;;;;5083610;28;19923;-89
2023/01/01 09:34:17;;;;;;;;;;;10.80;99.90;;;;;;5104272;27;20295;-90
2023/01/01 09:36:42;;;;;;;;;;;10.90;99.90;;;;;;5125982;27;19924;-89
2023/01/01 09:39:10;;;;;;;;;;;10.90;99.90;;;;;;5124780;27;19937;-89
2023/01/01 09:41:36;;;;;;;;;;;10.90;99.90;;;;;;5108549;27;19923;-91
2023/01/01 09:44:13;;;;;;;;;;;10.90;99.90;;;;;;5106802;27;19964;-90
2023/01/01 09:46:48;;;;;;;;;;;11.00;99.90;;;;;;5122639;27;19989;-89
2023/01/01 09:49:35;;;;;;;;;;;10.90;99.90;;;;;;5095426;27;19928;-88
2023/01/01 09:52:04;;;;;;;;;;;10.90;99.90;;;;;;5124984;27;19923;-88
2023/01/01 09:54:42;;;;;;;;;;;10.90;99.90;;;;;;5124497;27;19923;-88
2023/01/01 09:57:10;;;;;;;;;;;10.90;99.90;;;;;;5121918;27;19923;-89
2023/01/01 09:59:35;;;;;;;;;;;11.00;99.90;;;;;;5125081;27;19923;-87
2023/01/01 10:02:07;;;;;;;;;;;10.90;99.90;;;;;;5124340;27;19924;-88
2023/01/01 10:04:39;;;;;;;;;;;11.00;99.90;;;;;;5107068;27;20379;-88
2023/01/01 10:07:28;;;;;;;;;;;11.00;99.90;;;;;;5107239;27;19923;-87
2023/01/01 10:10:02;;;;;;;;;;;11.00;99.90;;;;;;5087256;27;19930;-86
2023/01/01 10:12:43;;;;;;;;;;;11.00;99.90;;;;;;5111266;28;19932;-87
2023/01/01 10:15:13;;;;;;;;;;;11.00;99.90;;;;;;5120551;27;20224;-87
2023/01/01 10:17:42;;;;;;;;;;;11.10;99.90;;;;;;5120132;27;19923;-88
2023/01/01 10:20:16;;;;;;;;;;;11.10;99.90;;;;;;5109173;27;19923;-87
2023/01/01 10:22:43;;;;;;;;;;;11.10;99.90;;;;;;5118867;28;19967;-87
2023/01/01 10:25:12;;;;;;;;;;;11.10;99.90;;;;;;5103788;28;19924;-87
2023/01/01 10:27:46;;;;;;;;;;;11.10;99.90;;;;;;5108328;27;19973;-87
2023/01/01 10:30:19;;;;;;;;;;;11.10;99.90;;;;;;5137334;27;20136;-87
2023/01/01 10:32:49;;;;;;;;;;;11.20;99.90;;;;;;5130282;27;19923;-88
2023/01/01 10:35:17;;;;;;;;;;;11.20;99.90;;;;;;5123288;27;19933;-88
2023/01/01 10:37:43;;;;;;;;;;;11.20;99.90;;;;;;5119896;28;20042;-89
2023/01/01 10:40:16;;;;;;;;;;;11.20;99.90;;;;;;5120429;27;20351;-87
2023/01/01 10:42:46;;;;;;;;;;;11.20;99.90;;;;;;5119850;27;19930;-88
2023/01/01 10:45:15;;;;;;;;;;;11.20;99.90;;;;;;5121078;27;20355;-89
2023/01/01 10:48:01;;;;;;;;;;;11.10;99.90;;;;;;5117937;28;19931;-87
2023/01/01 10:50:47;;;;;;;;;;;11.10;99.90;;;;;;5118111;27;19928;-87
2023/01/01 10:53:33;;;;;;;;;;;11.00;99.90;;;;;;5107027;27;19997;-88
2023/01/01 10:56:04;;;;;;;;;;;11.00;99.90;;;;;;5100600;27;19930;-87
2023/01/01 10:58:30;;;;;;;;;;;11.00;99.90;;;;;;5119151;27;19927;-87
2023/01/01 11:00:59;;;;;;;;;;;11.00;99.90;;;;;;5123394;27;20438;-89
2023/01/01 11:03:25;;;;;;;;;;;11.00;99.90;;;;;;5113046;27;19931;-87
2023/01/01 11:06:01;;;;;;;;;;;11.00;99.90;;;;;;5117778;27;19934;-87
2023/01/01 11:08:28;;;;;;;;;;;11.00;99.90;;;;;;5100492;27;19932;-86
2023/01/01 11:10:55;;;;;;;;;;;11.10;99.90;;;;;;5115677;28;20331;-88
2023/01/01 11:13:20;;;;;;;;;;;11.10;99.90;;;;;;5095933;28;19928;-86
2023/01/01 11:15:46;;;;;;;;;;;11.10;99.90;;;;;;5101994;28;19928;-87
2023/01/01 11:18:19;;;;;;;;;;;11.10;99.90;;;;;;5119918;27;19923;-87
2023/01/01 11:20:50;;;;;;;;;;;11.10;99.90;;;;;;5106328;27;19998;-88
2023/01/01 11:23:18;;;;;;;;;;;11.10;99.90;;;;;;5103610;28;20080;-90
2023/01/01 11:25:57;;;;;;;;;;;11.10;99.90;;;;;;5119051;28;20299;-88
2023/01/01 11:28:23;;;;;;;;;;;11.20;99.90;;;;;;5101306;28;19984;-87
2023/01/01 11:30:58;;;;;;;;;;;11.30;99.90;;;;;;5105976;28;19923;-86
2023/01/01 11:33:24;;;;;;;;;;;11.30;99.90;;;;;;5118723;28;20757;-86
2023/01/01 11:35:52;;;;;;;;;;;11.30;99.90;;;;;;5105761;28;20394;-86
2023/01/01 11:38:19;;;;;;;;;;;11.30;99.90;;;;;;5121647;28;19955;-87
2023/01/01 11:40:47;;;;;;;;;;;11.30;99.90;;;;;;5135435;28;19931;-87
2023/01/01 11:43:23;;;;;;;;;;;11.20;99.90;;;;;;5107220;28;19923;-89
2023/01/01 11:45:50;;;;;;;;;;;11.20;99.90;;;;;;5100516;28;20011;-86
2023/01/01 11:48:15;;;;;;;;;;;11.20;99.90;;;;;;5081551;28;19995;-86
2023/01/01 11:50:48;;;;;;;;;;;11.20;99.90;;;;;;5117591;28;19923;-87
2023/01/01 11:53:19;;;;;;;;;;;11.20;99.90;;;;;;5099562;28;19924;-87
2023/01/01 11:55:51;;;;;;;;;;;11.20;99.90;;;;;;5103018;28;19924;-87
2023/01/01 11:58:23;;;;;;;;;;;11.20;99.90;;;;;;5117061;28;19967;-87
2023/01/01 12:00:50;;;;;;;;;;;11.20;99.90;;;;;;5122434;28;19923;-87
2023/01/01 12:03:19;;;;;;;;;;;11.20;99.90;;;;;;5096800;28;19931;-87
2023/01/01 12:05:58;;;;;;;;;;;11.30;99.90;;;;;;5105313;28;20602;-86
2023/01/01 12:08:31;;;;;;;;;;;11.30;99.90;;;;;;5100792;28;19963;-87
2023/01/01 12:11:23;;;;;;;;;;;11.30;99.90;;;;;;5104726;27;19927;-87
2023/01/01 12:14:08;;;;;;;;;;;11.40;99.90;;;;;;5107405;28;19924;-88
2023/01/01 12:16:46;;;;;;;;;;;11.40;99.90;;;;;;5087404;27;20005;-87
2023/01/01 12:19:18;;;;;;;;;;;11.50;99.90;;;;;;5130138;27;19931;-88
2023/01/01 12:21:44;;;;;;;;;;;11.50;99.90;;;;;;5108312;28;19969;-87
2023/01/01 12:24:11;;;;;;;;;;;11.50;99.90;;;;;;5089433;28;19923;-87
2023/01/01 12:26:39;;;;;;;;;;;11.50;99.90;;;;;;5104637;27;19982;-87
2023/01/01 12:29:21;;;;;;;;;;;11.50;99.90;;;;;;5117187;28;19941;-87
2023/01/01 12:31:55;;;;;;;;;;;11.50;99.90;;;;;;5116741;28;19928;-90
2023/01/01 12:34:56;;;;;;;;;;;11.50;99.90;;;;;;5119426;28;19929;-87
2023/01/01 12:37:22;;;;;;;;;;;11.50;99.90;;;;;;5043347;28;20097;-87
2023/01/01 12:40:06;;;;;;;;;;;11.50;99.90;;;;;;5086270;28;20338;-87
2023/01/01 12:42:58;;;;;;;;;;;11.50;99.90;;;;;;5122774;27;19923;-86
2023/01/01 12:45:30;;;;;;;;;;;11.50;99.90;;;;;;5114646;27;19924;-87
2023/01/01 12:48:01;;;;;;;;;;;11.50;99.90;;;;;;5097815;27;19967;-88
2023/01/01 12:50:33;;;;;;;;;;;11.50;99.90;;;;;;5117667;27;19927;-87
2023/01/01 12:53:16;;;;;;;;;;;11.40;99.90;;;;;;5133061;27;19987;-86
2023/01/01 12:55:45;;;;;;;;;;;11.40;99.90;;;;;;5106571;27;19923;-87
2023/01/01 12:58:20;;;;;;;;;;;11.40;99.90;;;;;;5104816;27;19963;-88
2023/01/01 13:01:07;;;;;;;;;;;11.40;99.90;;;;;;5121746;27;20049;-88
2023/01/01 13:03:36;;;;;;;;;;;11.50;99.90;;;;;;5119096;27;19930;-87
2023/01/01 13:06:03;;;;;;;;;;;11.50;99.90;;;;;;5123761;27;19956;-88
2023/01/01 13:08:29;;;;;;;;;;;11.50;99.90;;;;;;5101712;28;20296;-87
2023/01/01 13:10:57;;;;;;;;;;;11.50;99.90;;;;;;5120392;27;19923;-86
2023/01/01 13:13:23;;;;;;;;;;;11.50;99.90;;;;;;5121099;27;19993;-87
2023/01/01 13:15:53;;;;;;;;;;;11.50;99.90;;;;;;5101151;27;20391;-87
2023/01/01 13:18:20;;;;;;;;;;;11.50;99.90;;;;;;5117170;27;19948;-88
2023/01/01 13:20:53;;;;;;;;;;;11.50;99.90;;;;;;5114562;27;19923;-88
2023/01/01 13:23:45;;;;;;;;;;;11.60;99.90;;;;;;5122382;27;19934;-89
2023/01/01 13:26:17;;;;;;;;;;;11.60;99.90;;;;;;5104801;27;19943;-88
2023/01/01 13:28:43;;;;;;;;;;;11.60;99.90;;;;;;5099168;27;19924;-88
2023/01/01 13:31:08;;;;;;;;;;;11.60;99.90;;;;;;5120248;27;19924;-87
2023/01/01 13:33:35;;;;;;;;;;;11.60;99.90;;;;;;5095609;27;20358;-89
2023/01/01 13:36:07;;;;;;;;;;;11.60;99.90;;;;;;5094078;27;19974;-89
2023/01/01 13:38:52;;;;;;;;;;;11.10;99.90;;;;;;5102530;27;19931;-88
2023/01/01 13:41:31;;;;;;;;;;;11.50;99.90;;;;;;5098325;27;20266;-88
2023/01/01 13:44:00;;;;;;;;;;;11.50;99.90;;;;;;5098800;27;20038;-88
2023/01/01 13:46:31;;;;;;;;;;;11.50;99.90;;;;;;5104353;27;19965;-88
2023/01/01 13:49:03;;;;;;;;;;;11.50;99.90;;;;;;5098671;27;19932;-88
2023/01/01 13:51:32;;;;;;;;;;;11.50;99.90;;;;;;5095584;27;19924;-89
2023/01/01 13:54:16;;;;;;;;;;;11.50;99.90;;;;;;5098838;27;19938;-89
2023/01/01 13:56:51;;;;;;;;;;;11.50;99.90;;;;;;5100404;27;20313;-87
2023/01/01 13:59:35;;;;;;;;;;;11.40;99.90;;;;;;5092938;27;20010;-88
2023/01/01 14:02:20;;;;;;;;;;;11.40;99.90;;;;;;5092644;28;19924;-89
2023/01/01 14:05:05;;;;;;;;;;;11.40;99.90;;;;;;5109256;27;19924;-88
2023/01/01 14:07:38;;;;;;;;;;;11.30;99.90;;;;;;5104368;27;19935;-88
2023/01/01 14:10:15;;;;;;;;;;;11.30;99.90;;;;;;5119543;27;19962;-90
2023/01/01 14:12:40;;;;;;;;;;;11.30;99.90;;;;;;5119121;27;19969;-88
2023/01/01 14:15:21;;;;;;;;;;;11.20;99.90;;;;;;5081326;27;19936;-87
2023/01/01 14:17:47;;;;;;;;;;;11.20;99.90;;;;;;5117666;27;19931;-87
2023/01/01 14:20:17;;;;;;;;;;;11.20;99.90;;;;;;5116215;27;19987;-87
2023/01/01 14:22:44;;;;;;;;;;;11.10;99.90;;;;;;5105771;27;19924;-86
2023/01/01 14:25:24;;;;;;;;;;;11.10;99.90;;;;;;5096791;27;19946;-86
2023/01/01 14:27:51;;;;;;;;;;;11.10;99.90;;;;;;5102679;27;20248;-87
2023/01/01 14:30:17;;;;;;;;;;;11.00;99.90;;;;;;5083881;27;19959;-87